METAR πλησιέστερων αεροδρομίων

 

LGIR - Iraklion Airport
Απόσταση από το σταθμό: ΒΔ 62km
Ενημερώθηκε: 21/10/2019 08:50
Αίθριος
Αίθριος
 Ανεμος από calm
Ανεμος: Απνοια
Θερμοκρασία: 19°C
Σημείο Δρόσου: 17°C
Υγρασία: 88%
Βαρόμετρο: 1019 hPa
Περίληψη: Αίθριος
Ορατότητα: μεγαλύτερη από 10 km
2019/10/21 05:50 LGIR 210550Z 00000KT CAVOK 19/17 Q1019 NOSIG
LGSA - Souda/Chania Airport
Απόσταση από το σταθμό: ΔΒΔ 154km
Ενημερώθηκε: 21/10/2019 09:20
Μερικώς νεφελώδης
Μερικώς νεφελώδης
 Ανεμος από calm
Ανεμος: Απνοια
Θερμοκρασία: 19°C
Σημείο Δρόσου: 18°C
Υγρασία: 94%
Βαρόμετρο: 1019 hPa
Νέφη: Μερικώς νεφελώδης
Ορατότητα: 9 km
2019/10/21 06:20 LGSA 210620Z 00000KT 9000 NSC 19/18 Q1019